sensor_id;sensor_type;location;lat;lon;timestamp;pressure;altitude;pressure_sealevel;temperature;humidity
46476;BME280;53376;51.114;14.738;2022-08-21T00:01:24;98331.09;;;21.47;66.10
46476;BME280;53376;51.114;14.738;2022-08-21T00:04:07;98320.28;;;21.47;65.92
46476;BME280;53376;51.114;14.738;2022-08-21T00:06:42;98320.13;;;21.48;66.20
46476;BME280;53376;51.114;14.738;2022-08-21T00:19:56;98324.50;;;21.49;66.30
46476;BME280;53376;51.114;14.738;2022-08-21T00:22:37;98315.56;;;21.49;66.23
46476;BME280;53376;51.114;14.738;2022-08-21T00:25:06;98318.28;;;21.49;66.38
46476;BME280;53376;51.114;14.738;2022-08-21T00:27:48;98318.28;;;21.49;65.97
46476;BME280;53376;51.114;14.738;2022-08-21T00:30:18;98315.75;;;21.47;66.34
46476;BME280;53376;51.114;14.738;2022-08-21T00:33:00;98323.00;;;21.47;66.19
46476;BME280;53376;51.114;14.738;2022-08-21T00:45:44;98305.94;;;21.46;66.49
46476;BME280;53376;51.114;14.738;2022-08-21T00:48:25;98311.53;;;21.45;66.50
46476;BME280;53376;51.114;14.738;2022-08-21T00:51:10;98312.53;;;21.44;66.54
46476;BME280;53376;51.114;14.738;2022-08-21T00:53:51;98315.22;;;21.44;66.58
46476;BME280;53376;51.114;14.738;2022-08-21T00:56:36;98315.22;;;21.44;66.59
46476;BME280;53376;51.114;14.738;2022-08-21T01:12:45;98312.84;;;21.40;67.02
46476;BME280;53376;51.114;14.738;2022-08-21T01:15:32;98313.84;;;21.39;66.95
46476;BME280;53376;51.114;14.738;2022-08-21T01:18:11;98311.13;;;21.39;66.80
46476;BME280;53376;51.114;14.738;2022-08-21T01:21:07;98304.06;;;21.38;66.75
46476;BME280;53376;51.114;14.738;2022-08-21T01:23:51;98308.44;;;21.39;66.82
46476;BME280;53376;51.114;14.738;2022-08-21T01:26:35;98313.84;;;21.39;66.86
46476;BME280;53376;51.114;14.738;2022-08-21T01:39:19;98299.66;;;21.37;67.33
46476;BME280;53376;51.114;14.738;2022-08-21T01:42:00;98305.06;;;21.37;67.44
46476;BME280;53376;51.114;14.738;2022-08-21T01:44:40;98306.09;;;21.36;67.25
46476;BME280;53376;51.114;14.738;2022-08-21T01:47:11;98304.38;;;21.35;67.11
46476;BME280;53376;51.114;14.738;2022-08-21T01:49:52;98309.78;;;21.35;67.06
46476;BME280;53376;51.114;14.738;2022-08-21T01:52:20;98301.69;;;21.35;66.81
46476;BME280;53376;51.114;14.738;2022-08-21T02:05:12;98305.38;;;21.34;67.35
46476;BME280;53376;51.114;14.738;2022-08-21T02:07:55;98309.97;;;21.34;67.55
46476;BME280;53376;51.114;14.738;2022-08-21T02:10:37;98308.25;;;21.33;67.51
46476;BME280;53376;51.114;14.738;2022-08-21T02:13:05;98307.44;;;21.32;67.18
46476;BME280;53376;51.114;14.738;2022-08-21T02:15:47;98309.28;;;21.32;67.07
46476;BME280;53376;51.114;14.738;2022-08-21T02:18:14;98301.16;;;21.32;67.21
46476;BME280;53376;51.114;14.738;2022-08-21T02:31:35;98302.16;;;21.31;67.18
46476;BME280;53376;51.114;14.738;2022-08-21T02:34:15;98302.34;;;21.29;67.31
46476;BME280;53376;51.114;14.738;2022-08-21T02:36:43;98294.22;;;21.29;67.33
46476;BME280;53376;51.114;14.738;2022-08-21T02:39:32;98295.22;;;21.28;67.42
46476;BME280;53376;51.114;14.738;2022-08-21T02:42:00;98289.00;;;21.28;66.99
46476;BME280;53376;51.114;14.738;2022-08-21T02:44:40;98288.13;;;21.27;66.71
46476;BME280;53376;51.114;14.738;2022-08-21T02:47:16;98293.53;;;21.27;67.46
46476;BME280;53376;51.114;14.738;2022-08-21T03:00:29;98292.19;;;21.23;67.42
46476;BME280;53376;51.114;14.738;2022-08-21T03:03:14;98294.06;;;21.22;67.23
46476;BME280;53376;51.114;14.738;2022-08-21T03:05:48;98290.50;;;21.22;67.20
46476;BME280;53376;51.114;14.738;2022-08-21T03:08:28;98290.50;;;21.22;67.00
46476;BME280;53376;51.114;14.738;2022-08-21T03:10:56;98295.06;;;21.21;67.29
46476;BME280;53376;51.114;14.738;2022-08-21T03:13:39;98300.47;;;21.21;66.98
46476;BME280;53376;51.114;14.738;2022-08-21T03:27:06;98301.28;;;21.22;66.69
46476;BME280;53376;51.114;14.738;2022-08-21T03:29:46;98302.31;;;21.21;66.80
46476;BME280;53376;51.114;14.738;2022-08-21T03:32:26;98304.00;;;21.22;66.28
46476;BME280;53376;51.114;14.738;2022-08-21T03:34:54;98305.00;;;21.21;66.48
46476;BME280;53376;51.114;14.738;2022-08-21T03:37:31;98307.03;;;21.19;66.37
46476;BME280;53376;51.114;14.738;2022-08-21T03:53:40;98310.56;;;21.19;65.65
46476;BME280;53376;51.114;14.738;2022-08-21T03:56:20;98324.94;;;21.20;65.31
46476;BME280;53376;51.114;14.738;2022-08-21T03:58:48;98326.09;;;21.17;65.75
46476;BME280;53376;51.114;14.738;2022-08-21T04:01:28;98323.56;;;21.16;65.61
46476;BME280;53376;51.114;14.738;2022-08-21T04:03:56;98333.38;;;21.17;65.58
46476;BME280;53376;51.114;14.738;2022-08-21T04:06:37;98323.56;;;21.16;65.53
46476;BME280;53376;51.114;14.738;2022-08-21T04:19:21;98343.28;;;21.08;65.56
46476;BME280;53376;51.114;14.738;2022-08-21T04:22:02;98350.69;;;21.06;65.84
46476;BME280;53376;51.114;14.738;2022-08-21T04:24:44;98351.88;;;21.03;65.79
46476;BME280;53376;51.114;14.738;2022-08-21T04:27:12;98348.47;;;21.01;65.94
46476;BME280;53376;51.114;14.738;2022-08-21T04:29:52;98348.47;;;21.01;65.95
46476;BME280;53376;51.114;14.738;2022-08-21T04:32:22;98351.19;;;21.01;66.37
46476;BME280;53376;51.114;14.738;2022-08-21T04:45:37;98356.75;;;21.00;65.83
46476;BME280;53376;51.114;14.738;2022-08-21T04:48:21;98355.06;;;20.99;66.05
46476;BME280;53376;51.114;14.738;2022-08-21T04:50:59;98355.91;;;20.99;65.83
46476;BME280;53376;51.114;14.738;2022-08-21T04:53:47;98364.03;;;20.99;65.88
46476;BME280;53376;51.114;14.738;2022-08-21T04:56:30;98365.72;;;21.00;65.79
46476;BME280;53376;51.114;14.738;2022-08-21T05:13:09;98377.53;;;20.99;66.01
46476;BME280;53376;51.114;14.738;2022-08-21T05:15:50;98381.53;;;20.95;66.38
46476;BME280;53376;51.114;14.738;2022-08-21T05:18:30;98377.31;;;20.92;66.27
46476;BME280;53376;51.114;14.738;2022-08-21T05:20:58;98375.47;;;20.93;66.48
46476;BME280;53376;51.114;14.738;2022-08-21T05:23:38;98384.94;;;20.97;66.32
46476;BME280;53376;51.114;14.738;2022-08-21T05:26:06;98381.22;;;20.98;66.41
46476;BME280;53376;51.114;14.738;2022-08-21T05:39:23;98379.88;;;21.02;66.53
46476;BME280;53376;51.114;14.738;2022-08-21T05:42:23;98379.88;;;21.02;66.48
46476;BME280;53376;51.114;14.738;2022-08-21T05:44:51;98388.00;;;21.02;66.44
46476;BME280;53376;51.114;14.738;2022-08-21T05:47:32;98380.75;;;21.03;66.44
46476;BME280;53376;51.114;14.738;2022-08-21T05:50:00;98384.28;;;21.03;66.33
46476;BME280;53376;51.114;14.738;2022-08-21T05:52:40;98386.00;;;21.04;66.51
46476;BME280;53376;51.114;14.738;2022-08-21T06:07:29;98382.13;;;21.07;66.25
46476;BME280;53376;51.114;14.738;2022-08-21T06:10:11;98380.94;;;21.09;66.31
46476;BME280;53376;51.114;14.738;2022-08-21T06:12:38;98380.25;;;21.07;66.50
46476;BME280;53376;51.114;14.738;2022-08-21T06:15:20;98397.31;;;21.08;66.23
46476;BME280;53376;51.114;14.738;2022-08-21T06:17:47;98385.34;;;21.10;66.53
46476;BME280;53376;51.114;14.738;2022-08-21T06:20:27;98399.56;;;21.13;66.03
46476;BME280;53376;51.114;14.738;2022-08-21T06:22:57;98392.44;;;21.12;66.18
46476;BME280;53376;51.114;14.738;2022-08-21T06:32:42;98388.75;;;21.13;66.12
46476;BME280;53376;51.114;14.738;2022-08-21T06:35:22;98394.16;;;21.13;65.90
46476;BME280;53376;51.114;14.738;2022-08-21T06:38:05;98391.28;;;21.14;66.08
46476;BME280;53376;51.114;14.738;2022-08-21T06:40:33;98391.09;;;21.16;65.78
46476;BME280;53376;51.114;14.738;2022-08-21T06:43:20;98394.69;;;21.16;65.84
46476;BME280;53376;51.114;14.738;2022-08-21T06:46:08;98395.50;;;21.17;65.93
46476;BME280;53376;51.114;14.738;2022-08-21T06:59:20;98404.31;;;21.19;66.09
46476;BME280;53376;51.114;14.738;2022-08-21T07:02:00;98394.34;;;21.19;65.85
46476;BME280;53376;51.114;14.738;2022-08-21T07:04:28;98400.59;;;21.20;65.74
46476;BME280;53376;51.114;14.738;2022-08-21T07:07:08;98403.97;;;21.22;66.03
46476;BME280;53376;51.114;14.738;2022-08-21T07:09:36;98405.66;;;21.23;65.83
46476;BME280;53376;51.114;14.738;2022-08-21T07:12:16;98396.56;;;21.24;66.05
46476;BME280;53376;51.114;14.738;2022-08-21T07:28:25;98391.50;;;21.29;65.91
46476;BME280;53376;51.114;14.738;2022-08-21T07:31:06;98383.09;;;21.32;65.53
46476;BME280;53376;51.114;14.738;2022-08-21T07:33:34;98376.81;;;21.32;65.79
46476;BME280;53376;51.114;14.738;2022-08-21T07:36:18;98379.34;;;21.33;66.10
46476;BME280;53376;51.114;14.738;2022-08-21T07:38:46;98391.88;;;21.34;66.15
46476;BME280;53376;51.114;14.738;2022-08-21T07:41:28;98391.88;;;21.34;65.97
46476;BME280;53376;51.114;14.738;2022-08-21T07:54:12;98387.50;;;21.41;66.27
46476;BME280;53376;51.114;14.738;2022-08-21T07:57:06;98394.44;;;21.44;65.67
46476;BME280;53376;51.114;14.738;2022-08-21T07:59:51;98396.97;;;21.46;65.57
46476;BME280;53376;51.114;14.738;2022-08-21T08:02:23;98398.69;;;21.47;65.28
46476;BME280;53376;51.114;14.738;2022-08-21T08:05:07;98396.66;;;21.49;65.69
46476;BME280;53376;51.114;14.738;2022-08-21T08:07:42;98398.19;;;21.51;65.53
46476;BME280;53376;51.114;14.738;2022-08-21T08:20:54;98413.00;;;21.73;65.04
46476;BME280;53376;51.114;14.738;2022-08-21T08:23:36;98408.97;;;21.78;64.72
46476;BME280;53376;51.114;14.738;2022-08-21T08:26:04;98410.34;;;21.82;64.84
46476;BME280;53376;51.114;14.738;2022-08-21T08:28:45;98415.41;;;21.85;64.46
46476;BME280;53376;51.114;14.738;2022-08-21T08:31:12;98420.50;;;21.88;64.35
46476;BME280;53376;51.114;14.738;2022-08-21T08:47:56;98410.38;;;21.98;63.88
46476;BME280;53376;51.114;14.738;2022-08-21T08:50:52;98403.94;;;21.99;64.11
46476;BME280;53376;51.114;14.738;2022-08-21T08:53:48;98401.91;;;22.01;63.98
46476;BME280;53376;51.114;14.738;2022-08-21T08:56:29;98407.31;;;22.01;63.97
46476;BME280;53376;51.114;14.738;2022-08-21T08:59:16;98406.13;;;22.04;63.83
46476;BME280;53376;51.114;14.738;2022-08-21T09:01:53;98406.00;;;22.05;64.15
46476;BME280;53376;51.114;14.738;2022-08-21T09:15:12;98400.06;;;22.10;63.55
46476;BME280;53376;51.114;14.738;2022-08-21T09:18:11;98402.44;;;22.13;63.59
46476;BME280;53376;51.114;14.738;2022-08-21T09:21:06;98401.25;;;22.16;63.23
46476;BME280;53376;51.114;14.738;2022-08-21T09:24:01;98399.75;;;22.21;63.71
46476;BME280;53376;51.114;14.738;2022-08-21T09:26:49;98397.03;;;22.30;63.50
46476;BME280;53376;51.114;14.738;2022-08-21T09:40:30;98385.69;;;22.76;62.62
46476;BME280;53376;51.114;14.738;2022-08-21T09:43:19;98388.41;;;22.84;62.43
46476;BME280;53376;51.114;14.738;2022-08-21T09:46:07;98382.81;;;22.94;62.28
46476;BME280;53376;51.114;14.738;2022-08-21T09:48:52;98390.06;;;23.01;62.13
46476;BME280;53376;51.114;14.738;2022-08-21T09:51:30;98382.09;;;23.08;61.85
46476;BME280;53376;51.114;14.738;2022-08-21T10:08:20;98366.50;;;23.58;60.28
46476;BME280;53376;51.114;14.738;2022-08-21T10:11:06;98363.06;;;23.64;59.39
46476;BME280;53376;51.114;14.738;2022-08-21T10:13:57;98368.81;;;23.70;59.23
46476;BME280;53376;51.114;14.738;2022-08-21T10:16:51;98367.78;;;23.71;58.43
46476;BME280;53376;51.114;14.738;2022-08-21T10:19:48;98365.75;;;23.73;58.09
46476;BME280;53376;51.114;14.738;2022-08-21T10:22:38;98363.69;;;23.75;57.93
46476;BME280;53376;51.114;14.738;2022-08-21T10:35:53;98371.19;;;23.73;57.56
46476;BME280;53376;51.114;14.738;2022-08-21T10:38:55;98372.88;;;23.74;57.40
46476;BME280;53376;51.114;14.738;2022-08-21T10:42:16;98366.25;;;23.76;57.26
46476;BME280;53376;51.114;14.738;2022-08-21T10:45:12;98375.69;;;23.80;57.87
46476;BME280;53376;51.114;14.738;2022-08-21T10:47:55;98371.13;;;23.81;57.33
46476;BME280;53376;51.114;14.738;2022-08-21T11:01:15;98373.78;;;23.89;55.67
46476;BME280;53376;51.114;14.738;2022-08-21T11:04:14;98374.81;;;23.88;54.97
46476;BME280;53376;51.114;14.738;2022-08-21T11:07:02;98369.91;;;23.92;54.89
46476;BME280;53376;51.114;14.738;2022-08-21T11:09:55;98361.22;;;23.96;54.63
46476;BME280;53376;51.114;14.738;2022-08-21T11:12:39;98369.31;;;24.05;54.82
46476;BME280;53376;51.114;14.738;2022-08-21T11:29:29;98352.53;;;24.62;53.06
46476;BME280;53376;51.114;14.738;2022-08-21T11:32:24;98356.22;;;24.70;52.60
46476;BME280;53376;51.114;14.738;2022-08-21T11:35:24;98354.47;;;24.77;52.89
46476;BME280;53376;51.114;14.738;2022-08-21T11:38:26;98357.28;;;24.84;53.12
46476;BME280;53376;51.114;14.738;2022-08-21T11:41:22;98355.69;;;24.89;52.42
46476;BME280;53376;51.114;14.738;2022-08-21T11:54:26;98340.72;;;25.23;52.34
46476;BME280;53376;51.114;14.738;2022-08-21T11:57:17;98343.69;;;25.29;52.40
46476;BME280;53376;51.114;14.738;2022-08-21T12:00:07;98347.53;;;25.34;52.67
46476;BME280;53376;51.114;14.738;2022-08-21T12:02:51;98340.88;;;25.37;51.79
46476;BME280;53376;51.114;14.738;2022-08-21T12:05:37;98339.50;;;25.41;51.45
46476;BME280;53376;51.114;14.738;2022-08-21T12:08:27;98329.72;;;25.47;51.44
46476;BME280;53376;51.114;14.738;2022-08-21T12:21:52;98345.63;;;25.65;51.03
46476;BME280;53376;51.114;14.738;2022-08-21T12:24:37;98353.22;;;25.69;51.25
46476;BME280;53376;51.114;14.738;2022-08-21T12:27:30;98342.59;;;25.74;50.82
46476;BME280;53376;51.114;14.738;2022-08-21T12:30:35;98341.84;;;25.81;50.36
46476;BME280;53376;51.114;14.738;2022-08-21T12:33:23;98341.06;;;25.87;50.71
46476;BME280;53376;51.114;14.738;2022-08-21T12:46:53;98341.13;;;25.94;49.23
46476;BME280;53376;51.114;14.738;2022-08-21T12:49:51;98343.38;;;25.90;48.83
46476;BME280;53376;51.114;14.738;2022-08-21T12:52:32;98345.28;;;25.89;48.94
46476;BME280;53376;51.114;14.738;2022-08-21T12:55:15;98332.78;;;25.95;48.77
46476;BME280;53376;51.114;14.738;2022-08-21T12:58:00;98345.16;;;25.98;48.82
46476;BME280;53376;51.114;14.738;2022-08-21T13:00:48;98343.66;;;25.95;48.36
46476;BME280;53376;51.114;14.738;2022-08-21T13:03:26;98344.88;;;25.92;48.05
46476;BME280;53376;51.114;14.738;2022-08-21T13:13:31;98343.84;;;25.72;48.90
46476;BME280;53376;51.114;14.738;2022-08-21T13:16:24;98340.00;;;25.66;47.79
46476;BME280;53376;51.114;14.738;2022-08-21T13:19:17;98340.56;;;25.62;47.59
46476;BME280;53376;51.114;14.738;2022-08-21T13:21:56;98339.94;;;25.59;47.44
46476;BME280;53376;51.114;14.738;2022-08-21T13:24:57;98338.59;;;25.55;48.18
46476;BME280;53376;51.114;14.738;2022-08-21T13:27:34;98335.25;;;25.53;47.27
46476;BME280;53376;51.114;14.738;2022-08-21T13:40:49;98328.66;;;25.63;48.14
46476;BME280;53376;51.114;14.738;2022-08-21T13:43:36;98335.41;;;25.67;48.18
46476;BME280;53376;51.114;14.738;2022-08-21T13:46:10;98332.28;;;25.70;48.06
46476;BME280;53376;51.114;14.738;2022-08-21T13:48:53;98342.59;;;25.74;47.77
46476;BME280;53376;51.114;14.738;2022-08-21T13:51:21;98339.31;;;25.79;47.05
46476;BME280;53376;51.114;14.738;2022-08-21T14:08:05;98339.31;;;26.01;46.44
46476;BME280;53376;51.114;14.738;2022-08-21T14:10:49;98336.59;;;26.01;47.10
46476;BME280;53376;51.114;14.738;2022-08-21T14:13:38;98340.19;;;26.01;46.92
46476;BME280;53376;51.114;14.738;2022-08-21T14:16:17;98343.06;;;26.00;47.12
46476;BME280;53376;51.114;14.738;2022-08-21T14:19:11;98340.34;;;26.00;47.56
46476;BME280;53376;51.114;14.738;2022-08-21T14:21:52;98345.16;;;25.98;47.40
46476;BME280;53376;51.114;14.738;2022-08-21T14:35:05;98346.38;;;26.10;46.01
46476;BME280;53376;51.114;14.738;2022-08-21T14:37:48;98343.88;;;26.15;46.26
46476;BME280;53376;51.114;14.738;2022-08-21T14:40:25;98338.03;;;26.18;46.12
46476;BME280;53376;51.114;14.738;2022-08-21T14:43:06;98342.72;;;26.25;45.58
46476;BME280;53376;51.114;14.738;2022-08-21T14:45:34;98336.69;;;26.29;45.98
46476;BME280;53376;51.114;14.738;2022-08-21T14:48:15;98336.09;;;26.34;45.95
46476;BME280;53376;51.114;14.738;2022-08-21T15:00:59;98337.91;;;26.48;45.92
46476;BME280;53376;51.114;14.738;2022-08-21T15:03:40;98335.22;;;26.55;45.82
46476;BME280;53376;51.114;14.738;2022-08-21T15:06:20;98336.31;;;26.61;46.24
46476;BME280;53376;51.114;14.738;2022-08-21T15:08:48;98338.06;;;26.68;46.30
46476;BME280;53376;51.114;14.738;2022-08-21T15:11:28;98339.81;;;26.76;46.40
46476;BME280;53376;51.114;14.738;2022-08-21T15:27:58;98333.44;;;26.69;46.18
46476;BME280;53376;51.114;14.738;2022-08-21T15:30:41;98338.84;;;26.62;46.08
46476;BME280;53376;51.114;14.738;2022-08-21T15:33:17;98341.69;;;26.54;46.57
46476;BME280;53376;51.114;14.738;2022-08-21T15:35:57;98338.72;;;26.49;46.31
46476;BME280;53376;51.114;14.738;2022-08-21T15:38:26;98345.63;;;26.45;46.30
46476;BME280;53376;51.114;14.738;2022-08-21T15:41:08;98354.19;;;26.42;46.53
46476;BME280;53376;51.114;14.738;2022-08-21T15:43:42;98348.28;;;26.38;46.85
46476;BME280;53376;51.114;14.738;2022-08-21T15:56:47;98349.84;;;26.26;47.25
46476;BME280;53376;51.114;14.738;2022-08-21T15:59:39;98347.69;;;26.21;47.61
46476;BME280;53376;51.114;14.738;2022-08-21T16:02:19;98354.00;;;26.21;47.41
46476;BME280;53376;51.114;14.738;2022-08-21T16:05:02;98350.63;;;26.19;47.63
46476;BME280;53376;51.114;14.738;2022-08-21T16:07:30;98351.66;;;26.18;47.02
46476;BME280;53376;51.114;14.738;2022-08-21T16:20:47;98352.56;;;26.04;47.38
46476;BME280;53376;51.114;14.738;2022-08-21T16:23:27;98353.78;;;26.01;47.70
46476;BME280;53376;51.114;14.738;2022-08-21T16:25:57;98353.31;;;25.98;47.64
46476;BME280;53376;51.114;14.738;2022-08-21T16:28:50;98354.72;;;25.94;48.22
46476;BME280;53376;51.114;14.738;2022-08-21T16:31:30;98349.69;;;25.90;48.37
46476;BME280;53376;51.114;14.738;2022-08-21T16:34:16;98347.34;;;25.87;48.08
46476;BME280;53376;51.114;14.738;2022-08-21T16:37:01;98350.06;;;25.87;48.22
46476;BME280;53376;51.114;14.738;2022-08-21T16:50:14;98347.63;;;26.64;46.72
46476;BME280;53376;51.114;14.738;2022-08-21T16:52:58;98346.63;;;26.94;45.63
46476;BME280;53376;51.114;14.738;2022-08-21T16:55:27;98350.25;;;27.01;45.03
46476;BME280;53376;51.114;14.738;2022-08-21T16:58:12;98346.03;;;26.98;45.63
46476;BME280;53376;51.114;14.738;2022-08-21T17:00:50;98346.53;;;26.80;46.02
46476;BME280;53376;51.114;14.738;2022-08-21T17:03:37;98337.59;;;26.65;46.37
46476;BME280;53376;51.114;14.738;2022-08-21T17:16:29;98338.13;;;27.10;44.97
46476;BME280;53376;51.114;14.738;2022-08-21T17:19:10;98342.38;;;26.84;45.58
46476;BME280;53376;51.114;14.738;2022-08-21T17:21:51;98340.09;;;26.60;46.11
46476;BME280;53376;51.114;14.738;2022-08-21T17:24:19;98343.28;;;26.42;46.60
46476;BME280;53376;51.114;14.738;2022-08-21T17:27:00;98344.81;;;26.22;47.32
46476;BME280;53376;51.114;14.738;2022-08-21T17:43:12;98353.81;;;25.35;48.67
46476;BME280;53376;51.114;14.738;2022-08-21T17:45:53;98355.97;;;25.24;48.59
46476;BME280;53376;51.114;14.738;2022-08-21T17:48:20;98355.06;;;25.17;49.16
46476;BME280;53376;51.114;14.738;2022-08-21T17:51:01;98358.88;;;25.08;49.55
46476;BME280;53376;51.114;14.738;2022-08-21T17:53:29;98363.56;;;24.99;49.59
46476;BME280;53376;51.114;14.738;2022-08-21T17:56:12;98366.22;;;24.92;49.78
46476;BME280;53376;51.114;14.738;2022-08-21T17:58:51;98361.50;;;24.86;49.92
46476;BME280;53376;51.114;14.738;2022-08-21T18:08:43;98362.88;;;24.67;50.45
46476;BME280;53376;51.114;14.738;2022-08-21T18:11:28;98361.88;;;24.60;50.95
46476;BME280;53376;51.114;14.738;2022-08-21T18:14:11;98366.22;;;24.54;50.70
46476;BME280;53376;51.114;14.738;2022-08-21T18:16:45;98358.78;;;24.48;50.71
46476;BME280;53376;51.114;14.738;2022-08-21T18:19:26;98374.59;;;24.44;50.97
46476;BME280;53376;51.114;14.738;2022-08-21T18:21:55;98382.28;;;24.41;51.37
46476;BME280;53376;51.114;14.738;2022-08-21T18:35:11;98383.19;;;24.33;52.17
46476;BME280;53376;51.114;14.738;2022-08-21T18:37:52;98384.41;;;24.30;52.31
46476;BME280;53376;51.114;14.738;2022-08-21T18:40:20;98392.06;;;24.27;51.82
46476;BME280;53376;51.114;14.738;2022-08-21T18:43:02;98385.13;;;24.24;51.74
46476;BME280;53376;51.114;14.738;2022-08-21T18:45:41;98381.25;;;24.19;51.76
46476;BME280;53376;51.114;14.738;2022-08-21T18:48:21;98393.31;;;24.16;51.48
46476;BME280;53376;51.114;14.738;2022-08-21T19:01:20;98397.47;;;24.04;51.79
46476;BME280;53376;51.114;14.738;2022-08-21T19:04:01;98393.91;;;24.03;52.04
46476;BME280;53376;51.114;14.738;2022-08-21T19:06:41;98401.03;;;24.04;52.50
46476;BME280;53376;51.114;14.738;2022-08-21T19:09:18;98392.06;;;24.04;52.30
46476;BME280;53376;51.114;14.738;2022-08-21T19:11:59;98393.06;;;24.03;52.54
46476;BME280;53376;51.114;14.738;2022-08-21T19:14:27;98398.88;;;24.00;52.68
46476;BME280;53376;51.114;14.738;2022-08-21T19:17:12;98390.72;;;24.00;52.59
46476;BME280;53376;51.114;14.738;2022-08-21T19:30:04;98391.25;;;23.95;52.79
46476;BME280;53376;51.114;14.738;2022-08-21T19:32:49;98395.19;;;23.92;52.50
46476;BME280;53376;51.114;14.738;2022-08-21T19:35:30;98396.16;;;23.91;52.30
46476;BME280;53376;51.114;14.738;2022-08-21T19:37:58;98395.50;;;23.89;52.04
46476;BME280;53376;51.114;14.738;2022-08-21T19:40:38;98404.00;;;23.86;52.32
46476;BME280;53376;51.114;14.738;2022-08-21T19:43:07;98406.03;;;23.84;52.69
46476;BME280;53376;51.114;14.738;2022-08-21T19:56:30;98406.44;;;23.73;53.58
46476;BME280;53376;51.114;14.738;2022-08-21T19:59:15;98402.88;;;23.72;53.67
46476;BME280;53376;51.114;14.738;2022-08-21T20:01:57;98409.50;;;23.70;53.70
46476;BME280;53376;51.114;14.738;2022-08-21T20:04:40;98403.06;;;23.71;53.90
46476;BME280;53376;51.114;14.738;2022-08-21T20:07:34;98403.44;;;23.67;53.62
46476;BME280;53376;51.114;14.738;2022-08-21T20:24:33;98411.97;;;23.48;53.36
46476;BME280;53376;51.114;14.738;2022-08-21T20:27:13;98402.34;;;23.45;53.01
46476;BME280;53376;51.114;14.738;2022-08-21T20:29:57;98407.44;;;23.40;53.11
46476;BME280;53376;51.114;14.738;2022-08-21T20:32:25;98411.00;;;23.41;52.41
46476;BME280;53376;51.114;14.738;2022-08-21T20:35:06;98404.22;;;23.37;52.36
46476;BME280;53376;51.114;14.738;2022-08-21T20:38:02;98408.28;;;23.32;52.51
46476;BME280;53376;51.114;14.738;2022-08-21T20:48:23;98408.66;;;23.29;52.11
46476;BME280;53376;51.114;14.738;2022-08-21T20:51:29;98405.28;;;23.27;52.34
46476;BME280;53376;51.114;14.738;2022-08-21T20:54:20;98407.28;;;23.25;51.61
46476;BME280;53376;51.114;14.738;2022-08-21T20:57:05;98405.97;;;23.21;51.84
46476;BME280;53376;51.114;14.738;2022-08-21T20:59:55;98397.00;;;23.21;51.90
46476;BME280;53376;51.114;14.738;2022-08-21T21:02:42;98401.06;;;23.16;52.09
46476;BME280;53376;51.114;14.738;2022-08-21T21:16:04;98409.69;;;23.12;51.99
46476;BME280;53376;51.114;14.738;2022-08-21T21:18:54;98410.72;;;23.11;51.80
46476;BME280;53376;51.114;14.738;2022-08-21T21:21:36;98416.47;;;23.08;51.90
46476;BME280;53376;51.114;14.738;2022-08-21T21:24:31;98421.06;;;23.07;52.04
46476;BME280;53376;51.114;14.738;2022-08-21T21:27:16;98413.09;;;23.06;52.15
46476;BME280;53376;51.114;14.738;2022-08-21T21:47:26;98414.31;;;22.95;52.05
46476;BME280;53376;51.114;14.738;2022-08-21T21:50:40;98410.72;;;22.94;52.59
46476;BME280;53376;51.114;14.738;2022-08-21T21:53:47;98409.41;;;22.90;52.71
46476;BME280;53376;51.114;14.738;2022-08-21T21:56:37;98407.88;;;22.88;52.36
46476;BME280;53376;51.114;14.738;2022-08-21T22:09:42;98398.56;;;22.82;52.42
46476;BME280;53376;51.114;14.738;2022-08-21T22:12:36;98413.28;;;22.79;52.21
46476;BME280;53376;51.114;14.738;2022-08-21T22:15:39;98409.06;;;22.77;52.30
46476;BME280;53376;51.114;14.738;2022-08-21T22:18:10;98404.00;;;22.74;52.22
46476;BME280;53376;51.114;14.738;2022-08-21T22:20:58;98410.25;;;22.74;52.87
46476;BME280;53376;51.114;14.738;2022-08-21T22:23:40;98402.31;;;22.73;52.45
46476;BME280;53376;51.114;14.738;2022-08-21T22:36:58;98392.50;;;22.63;52.45
46476;BME280;53376;51.114;14.738;2022-08-21T22:39:43;98395.38;;;22.62;52.58
46476;BME280;53376;51.114;14.738;2022-08-21T22:42:22;98395.56;;;22.60;52.75
46476;BME280;53376;51.114;14.738;2022-08-21T22:45:07;98393.16;;;22.57;52.66
46476;BME280;53376;51.114;14.738;2022-08-21T22:47:46;98397.75;;;22.57;52.35
46476;BME280;53376;51.114;14.738;2022-08-21T23:04:25;98395.41;;;22.45;52.93
46476;BME280;53376;51.114;14.738;2022-08-21T23:07:06;98393.69;;;22.44;52.61
46476;BME280;53376;51.114;14.738;2022-08-21T23:09:51;98392.00;;;22.43;52.79
46476;BME280;53376;51.114;14.738;2022-08-21T23:12:48;98393.38;;;22.39;52.56
46476;BME280;53376;51.114;14.738;2022-08-21T23:18:34;98384.69;;;22.35;52.70
46476;BME280;53376;51.114;14.738;2022-08-21T23:28:58;98383.34;;;22.31;52.85
46476;BME280;53376;51.114;14.738;2022-08-21T23:31:51;98383.00;;;22.26;52.69
46476;BME280;53376;51.114;14.738;2022-08-21T23:34:44;98389.44;;;22.25;53.01
46476;BME280;53376;51.114;14.738;2022-08-21T23:37:40;98385.03;;;22.24;53.08
46476;BME280;53376;51.114;14.738;2022-08-21T23:40:41;98383.34;;;22.23;53.16
46476;BME280;53376;51.114;14.738;2022-08-21T23:43:36;98387.22;;;22.20;52.91
46476;BME280;53376;51.114;14.738;2022-08-21T23:57:05;98393.50;;;22.13;53.41
